createdAt,value
2022-12-13T00:00:35.297Z,9.718976
2022-12-13T00:01:35.315Z,9.719017
2022-12-13T00:02:35.335Z,9.719084
2022-12-13T00:03:35.293Z,9.719105
2022-12-13T00:04:35.247Z,9.719101
2022-12-13T00:05:35.251Z,9.719073
2022-12-13T00:06:35.272Z,9.719146
2022-12-13T00:07:35.234Z,9.719150
2022-12-13T00:08:35.223Z,9.719164
2022-12-13T00:09:35.201Z,9.719160
2022-12-13T00:10:35.218Z,9.719072
2022-12-13T00:11:35.219Z,9.719046
2022-12-13T00:12:35.207Z,9.719061
2022-12-13T00:13:35.166Z,9.719081
2022-12-13T00:14:35.158Z,9.718925
2022-12-13T00:15:35.145Z,9.719041
2022-12-13T00:16:35.156Z,9.719105
2022-12-13T00:17:35.151Z,9.719172
2022-12-13T00:18:35.120Z,9.719300
2022-12-13T00:19:35.125Z,9.719352
2022-12-13T00:20:35.109Z,9.719344
2022-12-13T00:21:35.082Z,9.719088
2022-12-13T00:22:35.079Z,9.719463
2022-12-13T00:23:35.091Z,9.719473
2022-12-13T00:24:35.096Z,9.719419
2022-12-13T00:25:35.054Z,9.719543
2022-12-13T00:26:35.050Z,9.719413
2022-12-13T00:27:35.038Z,9.719450
2022-12-13T00:28:35.026Z,9.719340
2022-12-13T00:29:35.049Z,9.719092
2022-12-13T00:30:35.044Z,9.718994
2022-12-13T00:32:37.000Z,9.719320
2022-12-13T00:33:35.021Z,9.719308
2022-12-13T00:34:34.984Z,9.719387
2022-12-13T00:35:34.957Z,9.719369
2022-12-13T00:36:34.967Z,9.719260
2022-12-13T00:37:34.942Z,9.719167
2022-12-13T00:38:34.926Z,9.719131
2022-12-13T00:39:34.967Z,9.719232
2022-12-13T00:40:34.922Z,9.719174
2022-12-13T00:41:34.906Z,9.719337
2022-12-13T00:42:34.909Z,9.719440
2022-12-13T00:43:34.875Z,9.719296
2022-12-13T00:44:34.907Z,9.719228
2022-12-13T00:45:34.870Z,9.719414
2022-12-13T00:46:34.884Z,9.719235
2022-12-13T00:47:34.850Z,9.719322
2022-12-13T00:48:34.845Z,9.719299
2022-12-13T00:49:34.889Z,9.719368
2022-12-13T00:50:34.824Z,9.719183
2022-12-13T00:51:34.834Z,9.719413
2022-12-13T00:52:34.806Z,9.719357
2022-12-13T00:53:34.796Z,9.719287
2022-12-13T00:54:34.780Z,9.719335
2022-12-13T00:55:34.783Z,9.719221
2022-12-13T00:56:34.798Z,9.719258
2022-12-13T00:57:34.757Z,9.719274
2022-12-13T00:58:34.760Z,9.719273
2022-12-13T00:59:34.753Z,9.719299
2022-12-13T01:00:34.737Z,9.719188
2022-12-13T01:01:34.756Z,9.719150
2022-12-13T01:02:34.715Z,9.719243
2022-12-13T01:03:34.747Z,9.719186
2022-12-13T01:04:34.710Z,9.719072
2022-12-13T01:06:13.272Z,9.719262
2022-12-13T01:06:36.704Z,9.719275
2022-12-13T01:07:34.661Z,9.719357
2022-12-13T01:08:34.662Z,9.719411
2022-12-13T01:09:34.641Z,9.719328
2022-12-13T01:10:34.656Z,9.719332
2022-12-13T01:11:34.631Z,9.719829
2022-12-13T01:12:34.607Z,9.719728
2022-12-13T01:13:34.606Z,9.719967
2022-12-13T01:14:34.601Z,9.719995
2022-12-13T01:15:34.633Z,9.719540
2022-12-13T01:16:34.619Z,9.719363
2022-12-13T01:17:34.571Z,9.719309
2022-12-13T01:18:34.552Z,9.718868
2022-12-13T01:19:34.571Z,9.718937
2022-12-13T01:20:34.538Z,9.718702
2022-12-13T01:21:34.530Z,9.718920
2022-12-13T01:22:34.556Z,9.719176
2022-12-13T01:23:34.507Z,9.719376
2022-12-13T01:24:34.496Z,9.719391
2022-12-13T01:25:34.500Z,9.719651
2022-12-13T01:26:34.474Z,9.719583
2022-12-13T01:27:34.495Z,9.719428
2022-12-13T01:28:34.472Z,9.719347
2022-12-13T01:29:34.455Z,9.719297
2022-12-13T01:30:34.485Z,9.719366
2022-12-13T01:31:34.436Z,9.719298
2022-12-13T01:32:34.458Z,9.719259
2022-12-13T01:33:34.413Z,9.719448
2022-12-13T01:34:34.426Z,9.719229
2022-12-13T01:35:34.405Z,9.719287
2022-12-13T01:36:38.214Z,9.719604
2022-12-13T01:37:37.570Z,9.719490
2022-12-13T01:38:37.599Z,9.719278
2022-12-13T01:39:37.977Z,9.719282
2022-12-13T01:40:38.591Z,9.719411
2022-12-13T01:41:34.345Z,9.719429
2022-12-13T01:42:34.338Z,9.719208
2022-12-13T01:43:34.331Z,9.719137
2022-12-13T01:44:34.496Z,9.719090
2022-12-13T01:45:34.304Z,9.719161
2022-12-13T01:46:34.392Z,9.719428
2022-12-13T01:47:34.312Z,9.719392
2022-12-13T01:48:34.279Z,9.719301
2022-12-13T01:49:34.283Z,9.719245
2022-12-13T01:50:34.263Z,9.719312
2022-12-13T01:51:34.247Z,9.719280
2022-12-13T01:52:34.251Z,9.719335
2022-12-13T01:53:34.223Z,9.719562
2022-12-13T01:54:34.504Z,9.719441
2022-12-13T01:55:34.215Z,9.719371
2022-12-13T01:56:35.232Z,9.719290
2022-12-13T01:57:34.195Z,9.719398
2022-12-13T01:58:34.182Z,9.719412
2022-12-13T01:59:34.187Z,9.719347
2022-12-13T02:00:34.159Z,9.719192
2022-12-13T02:01:34.201Z,9.719349
2022-12-13T02:02:34.167Z,9.719370
2022-12-13T02:03:34.135Z,9.719418
2022-12-13T02:04:34.205Z,9.719466
2022-12-13T02:05:34.165Z,9.719448
2022-12-13T02:06:34.148Z,9.719414
2022-12-13T02:07:34.101Z,9.719462
2022-12-13T02:08:35.823Z,9.719471
2022-12-13T02:09:34.090Z,9.719098
2022-12-13T02:10:34.069Z,9.719355
2022-12-13T02:11:34.073Z,9.719381
2022-12-13T02:12:34.096Z,9.719396
2022-12-13T02:13:34.064Z,9.719350
2022-12-13T02:14:34.045Z,9.719497
2022-12-13T02:15:34.046Z,9.719490
2022-12-13T02:16:34.029Z,9.719313
2022-12-13T02:17:34.031Z,9.719305
2022-12-13T02:18:34.001Z,9.719369
2022-12-13T02:19:33.989Z,9.719447
2022-12-13T02:20:33.978Z,9.719480
2022-12-13T02:21:33.990Z,9.719534
2022-12-13T02:22:33.979Z,9.719393
2022-12-13T02:23:33.962Z,9.719405
2022-12-13T02:24:33.966Z,9.719436
2022-12-13T02:25:33.966Z,9.719408
2022-12-13T02:26:33.932Z,9.719429
2022-12-13T02:27:33.945Z,9.719453
2022-12-13T02:28:34.930Z,9.719358
2022-12-13T02:29:33.912Z,9.719328
2022-12-13T02:30:33.929Z,9.719290
2022-12-13T02:31:33.904Z,9.719185
2022-12-13T02:32:33.881Z,9.719228
2022-12-13T02:33:33.866Z,9.719397
2022-12-13T02:34:34.270Z,9.719321
2022-12-13T02:35:33.896Z,9.719180
2022-12-13T02:36:36.317Z,9.719235
2022-12-13T02:37:33.824Z,9.719298
2022-12-13T02:38:33.827Z,9.719357
2022-12-13T02:39:33.807Z,9.719286
2022-12-13T02:40:33.812Z,9.719277
2022-12-13T02:41:33.811Z,9.719338
2022-12-13T02:42:33.777Z,9.719404
2022-12-13T02:43:34.109Z,9.719439
2022-12-13T02:44:33.770Z,9.719707
2022-12-13T02:45:33.765Z,9.719832
2022-12-13T02:46:33.788Z,9.719916
2022-12-13T02:47:33.727Z,9.719696
2022-12-13T02:48:33.705Z,9.719437
2022-12-13T02:49:33.724Z,9.719533
2022-12-13T02:50:33.710Z,9.719619
2022-12-13T02:51:33.734Z,9.719470
2022-12-13T02:52:33.696Z,9.719424
2022-12-13T02:53:33.982Z,9.719436
2022-12-13T02:54:33.681Z,9.719397
2022-12-13T02:55:33.667Z,9.719476
2022-12-13T02:56:33.686Z,9.719156
2022-12-13T02:57:33.635Z,9.718461
2022-12-13T02:58:33.643Z,9.719584
2022-12-13T02:59:33.622Z,9.718950
2022-12-13T03:00:33.610Z,9.719790
2022-12-13T03:01:39.989Z,9.720037
2022-12-13T03:02:34.699Z,9.719722
2022-12-13T03:03:33.694Z,9.719995
2022-12-13T03:04:41.103Z,9.719960
2022-12-13T03:05:33.547Z,9.719535
2022-12-13T03:06:34.647Z,9.719212
2022-12-13T03:07:33.520Z,9.719485
2022-12-13T03:08:33.519Z,9.719870
2022-12-13T03:09:33.513Z,9.719598
2022-12-13T03:10:33.521Z,9.719737
2022-12-13T03:11:33.480Z,9.719737
2022-12-13T03:12:33.476Z,9.719422
2022-12-13T03:13:33.473Z,9.719168
2022-12-13T03:14:33.506Z,9.719419
2022-12-13T03:15:33.471Z,9.719419
2022-12-13T03:16:33.435Z,9.719186
2022-12-13T03:17:33.428Z,9.719584
2022-12-13T03:18:33.414Z,9.719436
2022-12-13T03:19:33.411Z,9.719934
2022-12-13T03:20:33.419Z,9.719631
2022-12-13T03:21:33.400Z,9.719248
2022-12-13T03:22:33.392Z,9.719363
2022-12-13T03:23:33.400Z,9.719708
2022-12-13T03:24:33.379Z,9.719762
2022-12-13T03:25:33.374Z,9.719193
2022-12-13T03:26:33.377Z,9.719209
2022-12-13T03:27:33.339Z,9.719965
2022-12-13T03:28:33.352Z,9.719965
2022-12-13T03:29:33.336Z,9.719965
2022-12-13T03:30:33.318Z,9.719965
2022-12-13T03:31:33.335Z,9.719965
2022-12-13T03:32:33.297Z,9.719965
2022-12-13T03:33:33.326Z,9.719913
2022-12-13T03:34:44.585Z,9.719665
2022-12-13T03:35:45.156Z,9.719141
2022-12-13T03:36:34.267Z,9.719174
2022-12-13T03:37:33.247Z,9.719301
2022-12-13T03:38:33.253Z,9.719429
2022-12-13T03:39:33.444Z,9.719395
2022-12-13T03:40:33.228Z,9.719253
2022-12-13T03:41:33.211Z,9.719230
2022-12-13T03:42:33.202Z,9.719378
2022-12-13T03:43:33.212Z,9.719263
2022-12-13T03:44:33.209Z,9.719418
2022-12-13T03:45:33.180Z,9.719490
2022-12-13T03:46:33.202Z,9.719189
2022-12-13T03:47:33.155Z,9.719015
2022-12-13T03:48:33.140Z,9.719366
2022-12-13T03:49:35.093Z,9.719421
2022-12-13T03:50:33.130Z,9.719275
2022-12-13T03:51:33.119Z,9.719321
2022-12-13T03:52:33.121Z,9.719241
2022-12-13T03:53:34.567Z,9.719090
2022-12-13T03:54:33.325Z,9.719254
2022-12-13T03:55:33.112Z,9.719492
2022-12-13T03:56:33.071Z,9.719337
2022-12-13T03:57:33.062Z,9.718961
2022-12-13T03:58:35.321Z,9.719049
2022-12-13T03:59:33.069Z,9.719181
2022-12-13T04:00:33.031Z,9.719311
2022-12-13T04:01:33.060Z,9.719509
2022-12-13T04:02:33.018Z,9.719489
2022-12-13T04:03:33.003Z,9.719295
2022-12-13T04:04:33.021Z,9.719591
2022-12-13T04:05:32.992Z,9.719256
2022-12-13T04:06:33.386Z,9.719239
2022-12-13T04:07:34.612Z,9.719155
2022-12-13T04:08:33.028Z,9.719114
2022-12-13T04:09:32.963Z,9.719277
2022-12-13T04:10:32.998Z,9.719426
2022-12-13T04:11:32.935Z,9.719312
2022-12-13T04:12:32.930Z,9.719298
2022-12-13T04:13:32.941Z,9.719315
2022-12-13T04:14:32.909Z,9.719227
2022-12-13T04:15:32.892Z,9.719205
2022-12-13T04:16:32.932Z,9.719151
2022-12-13T04:17:32.881Z,9.718860
2022-12-13T04:18:32.865Z,9.719148
2022-12-13T04:19:32.876Z,9.719141
2022-12-13T04:20:32.846Z,9.718956
2022-12-13T04:21:32.854Z,9.719072
2022-12-13T04:22:32.829Z,9.718920
2022-12-13T04:23:32.814Z,9.719031
2022-12-13T04:24:32.836Z,9.719007
2022-12-13T04:25:32.798Z,9.718894
2022-12-13T04:26:32.802Z,9.719003
2022-12-13T04:27:32.802Z,9.719156
2022-12-13T04:28:32.772Z,9.718995
2022-12-13T04:29:34.687Z,9.719053
2022-12-13T04:30:32.754Z,9.719034
2022-12-13T04:31:32.806Z,9.719090
2022-12-13T04:32:32.747Z,9.718933
2022-12-13T04:33:32.833Z,9.719050
2022-12-13T04:34:37.220Z,9.719071
2022-12-13T04:35:32.704Z,9.719043
2022-12-13T04:36:32.996Z,9.718954
2022-12-13T04:37:33.678Z,9.719030
2022-12-13T04:38:32.681Z,9.719129
2022-12-13T04:39:34.328Z,9.719022
2022-12-13T04:40:32.682Z,9.719083
2022-12-13T04:41:34.441Z,9.719040
2022-12-13T04:42:32.659Z,9.719105
2022-12-13T04:43:32.683Z,9.719043
2022-12-13T04:44:36.563Z,9.719071
2022-12-13T04:45:33.641Z,9.719094
2022-12-13T04:46:32.617Z,9.719142
2022-12-13T04:47:32.632Z,9.719015
2022-12-13T04:48:32.610Z,9.719166
2022-12-13T04:49:32.577Z,9.718933
2022-12-13T04:50:32.563Z,9.719056
2022-12-13T04:51:33.562Z,9.719153
2022-12-13T04:52:32.548Z,9.719117
2022-12-13T04:53:32.580Z,9.719022
2022-12-13T04:54:36.176Z,9.719128
2022-12-13T04:55:32.512Z,9.719055
2022-12-13T04:56:32.508Z,9.719208
2022-12-13T04:57:32.500Z,9.719123
2022-12-13T04:58:32.527Z,9.719043
2022-12-13T04:59:32.495Z,9.719030
2022-12-13T05:00:32.468Z,9.719026
2022-12-13T05:01:32.518Z,9.719053
2022-12-13T05:02:32.584Z,9.719000
2022-12-13T05:03:32.460Z,9.719015
2022-12-13T05:04:33.322Z,9.719046
2022-12-13T05:05:33.445Z,9.719068
2022-12-13T05:06:32.426Z,9.719020
2022-12-13T05:07:32.418Z,9.719092
2022-12-13T05:08:32.441Z,9.719110
2022-12-13T05:09:32.422Z,9.719091
2022-12-13T05:10:37.804Z,9.719157
2022-12-13T05:11:35.388Z,9.719134
2022-12-13T05:12:32.359Z,9.719028
2022-12-13T05:13:32.363Z,9.719067
2022-12-13T05:14:32.361Z,9.719120
2022-12-13T05:15:32.353Z,9.719121
2022-12-13T05:16:32.390Z,9.719091
2022-12-13T05:17:32.314Z,9.719044
2022-12-13T05:18:32.307Z,9.719110
2022-12-13T05:19:32.295Z,9.719193
2022-12-13T05:20:32.289Z,9.719190
2022-12-13T05:21:32.285Z,9.719067
2022-12-13T05:22:32.288Z,9.719170
2022-12-13T05:23:32.265Z,9.719220
2022-12-13T05:24:32.260Z,9.719102
2022-12-13T05:25:32.235Z,9.719153
2022-12-13T05:26:32.219Z,9.719111
2022-12-13T05:27:32.275Z,9.719102
2022-12-13T05:28:32.211Z,9.719157
2022-12-13T05:29:32.192Z,9.719059
2022-12-13T05:30:32.210Z,9.719096
2022-12-13T05:31:32.267Z,9.719152
2022-12-13T05:32:32.183Z,9.719175
2022-12-13T05:33:32.174Z,9.719192
2022-12-13T05:34:32.164Z,9.719017
2022-12-13T05:35:32.178Z,9.719231
2022-12-13T05:36:32.130Z,9.719183
2022-12-13T05:37:34.758Z,9.719035
2022-12-13T05:38:32.148Z,9.719102
2022-12-13T05:39:32.160Z,9.719041
2022-12-13T05:40:32.097Z,9.718995
2022-12-13T05:41:32.086Z,9.718817
2022-12-13T05:42:32.091Z,9.719141
2022-12-13T05:43:42.320Z,9.719065
2022-12-13T05:44:32.055Z,9.718984
2022-12-13T05:45:32.303Z,9.719046
2022-12-13T05:46:36.828Z,9.719162
2022-12-13T05:47:32.044Z,9.719335
2022-12-13T05:48:32.032Z,9.719366
2022-12-13T05:49:32.236Z,9.719434
2022-12-13T05:50:32.016Z,9.719285
2022-12-13T05:51:32.032Z,9.719369
2022-12-13T05:52:31.985Z,9.719458
2022-12-13T05:53:31.984Z,9.719458
2022-12-13T05:54:31.975Z,9.719236
2022-12-13T05:55:31.980Z,9.719250
2022-12-13T05:56:31.941Z,9.719074
2022-12-13T05:57:31.967Z,9.719106
2022-12-13T05:58:35.937Z,9.719344
2022-12-13T05:59:31.942Z,9.719131
2022-12-13T06:00:31.928Z,9.719018
2022-12-13T06:01:31.943Z,9.719060
2022-12-13T06:02:32.068Z,9.719209
2022-12-13T06:03:32.013Z,9.719307
2022-12-13T06:04:31.881Z,9.719254
2022-12-13T06:05:31.868Z,9.719356
2022-12-13T06:06:31.865Z,9.719338
2022-12-13T06:07:31.873Z,9.719058
2022-12-13T06:08:31.893Z,9.718986
2022-12-13T06:09:31.823Z,9.718986
2022-12-13T06:10:34.881Z,9.718986
2022-12-13T06:11:32.648Z,9.718986
2022-12-13T06:12:32.804Z,9.718986
2022-12-13T06:13:32.595Z,9.718986
2022-12-13T06:14:31.788Z,9.718986
2022-12-13T06:15:34.790Z,9.718986
2022-12-13T06:16:31.834Z,9.719808
2022-12-13T06:17:31.846Z,9.719573
2022-12-13T06:18:31.744Z,9.718874
2022-12-13T06:19:31.747Z,9.719221
2022-12-13T06:20:31.724Z,9.719315
2022-12-13T06:21:41.258Z,9.719326
2022-12-13T06:22:33.713Z,9.719329
2022-12-13T06:23:31.720Z,9.719260
2022-12-13T06:24:31.693Z,9.719255
2022-12-13T06:25:32.236Z,9.719214
2022-12-13T06:26:32.704Z,9.719283
2022-12-13T06:27:31.661Z,9.719391
2022-12-13T06:28:31.689Z,9.719263
2022-12-13T06:29:31.643Z,9.719350
2022-12-13T06:30:31.746Z,9.719294
2022-12-13T06:31:31.664Z,9.719330
2022-12-13T06:32:31.619Z,9.719296
2022-12-13T06:33:31.609Z,9.719338
2022-12-13T06:34:31.593Z,9.719323
2022-12-13T06:35:35.266Z,9.719238
2022-12-13T06:36:33.594Z,9.719295
2022-12-13T06:37:31.606Z,9.719336
2022-12-13T06:38:33.148Z,9.719260
2022-12-13T06:39:32.711Z,9.719278
2022-12-13T06:40:31.549Z,9.719272
2022-12-13T06:41:32.353Z,9.719295
2022-12-13T06:42:32.551Z,9.719307
2022-12-13T06:43:31.520Z,9.719325
2022-12-13T06:44:31.714Z,9.719294
2022-12-13T06:45:31.497Z,9.719311
2022-12-13T06:46:31.559Z,9.719322
2022-12-13T06:47:32.589Z,9.719404
2022-12-13T06:48:31.471Z,9.719342
2022-12-13T06:49:32.381Z,9.719354
2022-12-13T06:50:31.470Z,9.719351
2022-12-13T06:51:33.094Z,9.719357
2022-12-13T06:52:31.443Z,9.719388
2022-12-13T06:53:31.427Z,9.719311
2022-12-13T06:54:31.423Z,9.719288
2022-12-13T06:55:31.429Z,9.719290
2022-12-13T06:56:31.417Z,9.719275
2022-12-13T06:57:31.390Z,9.719309
2022-12-13T06:58:31.403Z,9.719292
2022-12-13T06:59:31.367Z,9.719298
2022-12-13T07:00:38.176Z,9.719342
2022-12-13T07:01:36.761Z,9.719412
2022-12-13T07:02:32.515Z,9.719396
2022-12-13T07:03:31.394Z,9.719380
2022-12-13T07:04:31.539Z,9.719304
2022-12-13T07:05:31.332Z,9.719411
2022-12-13T07:06:31.317Z,9.719415
2022-12-13T07:07:31.299Z,9.719483
2022-12-13T07:08:31.343Z,9.719271
2022-12-13T07:09:31.286Z,9.719330
2022-12-13T07:10:31.288Z,9.719415
2022-12-13T07:11:31.254Z,9.719475
2022-12-13T07:12:31.252Z,9.719444
2022-12-13T07:13:31.261Z,9.719351
2022-12-13T07:14:31.239Z,9.719270
2022-12-13T07:15:31.257Z,9.719268
2022-12-13T07:16:31.256Z,9.719352
2022-12-13T07:17:31.870Z,9.719240
2022-12-13T07:18:32.193Z,9.719288
2022-12-13T07:19:35.223Z,9.719399
2022-12-13T07:20:31.185Z,9.719534
2022-12-13T07:21:31.216Z,9.719397
2022-12-13T07:22:34.855Z,9.719215
2022-12-13T07:23:31.137Z,9.719344
2022-12-13T07:24:31.136Z,9.719438
2022-12-13T07:25:32.132Z,9.719382
2022-12-13T07:26:31.139Z,9.719436
2022-12-13T07:27:31.132Z,9.719417
2022-12-13T07:28:31.097Z,9.719293
2022-12-13T07:29:31.093Z,9.719312
2022-12-13T07:30:31.088Z,9.719361
2022-12-13T07:31:31.116Z,9.719334
2022-12-13T07:32:31.090Z,9.719275
2022-12-13T07:33:31.053Z,9.719288
2022-12-13T07:34:31.054Z,9.719306
2022-12-13T07:35:31.038Z,9.719340
2022-12-13T07:36:32.024Z,9.719473
2022-12-13T07:37:31.329Z,9.719340
2022-12-13T07:38:32.064Z,9.719255
2022-12-13T07:39:31.020Z,9.719298
2022-12-13T07:40:30.985Z,9.719305
2022-12-13T07:41:31.054Z,9.719337
2022-12-13T07:42:30.983Z,9.719469
2022-12-13T07:43:30.965Z,9.719661
2022-12-13T07:44:31.003Z,9.719423
2022-12-13T07:45:30.947Z,9.719274
2022-12-13T07:46:32.487Z,9.719184
2022-12-13T07:47:30.940Z,9.719293
2022-12-13T07:48:30.953Z,9.719294
2022-12-13T07:49:30.926Z,9.719270
2022-12-13T07:50:37.352Z,9.719327
2022-12-13T07:51:31.897Z,9.719373
2022-12-13T07:52:30.886Z,9.719464
2022-12-13T07:53:33.206Z,9.719380
2022-12-13T07:54:30.882Z,9.719440
2022-12-13T07:55:33.222Z,9.719407
2022-12-13T07:56:30.851Z,9.719273
2022-12-13T07:57:30.833Z,9.719263
2022-12-13T07:58:31.112Z,9.719274
2022-12-13T07:59:30.844Z,9.719377
2022-12-13T08:00:30.819Z,9.719436
2022-12-13T08:01:30.863Z,9.719331
2022-12-13T08:02:30.800Z,9.719237
2022-12-13T08:03:30.812Z,9.719243
2022-12-13T08:04:37.453Z,9.719219
2022-12-13T08:05:38.324Z,9.719317
2022-12-13T08:06:31.771Z,9.719364
2022-12-13T08:07:30.735Z,9.719334
2022-12-13T08:08:31.655Z,9.719288
2022-12-13T08:09:30.763Z,9.719374
2022-12-13T08:10:30.720Z,9.719348
2022-12-13T08:11:30.714Z,9.719242
2022-12-13T08:12:30.735Z,9.719228
2022-12-13T08:13:30.694Z,9.719266
2022-12-13T08:14:30.677Z,9.719221
2022-12-13T08:15:31.706Z,9.719216
2022-12-13T08:16:30.791Z,9.719221
2022-12-13T08:17:30.654Z,9.719276
2022-12-13T08:18:30.667Z,9.719336
2022-12-13T08:19:30.662Z,9.719402
2022-12-13T08:20:30.643Z,9.719402
2022-12-13T08:21:53.290Z,9.719402
2022-12-13T08:22:36.102Z,9.719402
2022-12-13T08:23:30.605Z,9.719402
2022-12-13T08:24:30.658Z,9.719402
2022-12-13T08:25:30.583Z,9.719436
2022-12-13T08:26:30.573Z,9.719436
2022-12-13T08:27:30.583Z,9.719436
2022-12-13T08:28:30.553Z,9.719436
2022-12-13T08:29:34.371Z,9.719436
2022-12-13T08:30:30.554Z,9.719436
2022-12-13T08:31:34.016Z,9.719436
2022-12-13T08:32:30.544Z,9.719436
2022-12-13T08:33:30.519Z,9.719436
2022-12-13T08:34:30.526Z,9.719436
2022-12-13T08:35:34.012Z,9.719436
2022-12-13T08:36:31.505Z,9.719436
2022-12-13T08:37:30.462Z,9.719436
2022-12-13T08:38:30.475Z,9.719436
2022-12-13T08:39:30.474Z,9.719436
2022-12-13T08:40:30.473Z,9.719436
2022-12-13T08:41:34.464Z,9.719436
2022-12-13T08:42:32.436Z,9.719436
2022-12-13T08:43:30.414Z,9.719436
2022-12-13T08:44:30.409Z,9.719436
2022-12-13T08:45:30.423Z,9.719436
2022-12-13T08:46:30.429Z,9.719436
2022-12-13T08:47:30.393Z,9.719436
2022-12-13T08:48:30.364Z,9.719436
2022-12-13T08:49:30.378Z,9.719436
2022-12-13T08:50:30.394Z,9.719436
2022-12-13T08:51:35.612Z,9.719436
2022-12-13T08:52:31.330Z,9.719436
2022-12-13T08:53:40.667Z,9.719436
2022-12-13T08:54:31.941Z,9.719436
2022-12-13T08:55:32.274Z,9.719436
2022-12-13T08:56:30.299Z,9.719436
2022-12-13T08:57:30.289Z,9.719436
2022-12-13T08:58:30.272Z,9.719436
2022-12-13T08:59:30.271Z,9.719436
2022-12-13T09:00:36.070Z,9.719436
2022-12-13T09:01:31.282Z,9.719436
2022-12-13T09:02:30.313Z,9.719436
2022-12-13T09:03:30.226Z,9.719436
2022-12-13T09:04:31.412Z,9.719436
2022-12-13T09:06:02.618Z,9.719436
2022-12-13T09:06:30.218Z,9.719436
2022-12-13T09:07:30.246Z,9.719436
2022-12-13T09:08:35.027Z,9.719436
2022-12-13T09:09:31.186Z,9.719436
2022-12-13T09:10:38.259Z,9.719436
2022-12-13T09:11:34.965Z,9.719436
2022-12-13T09:12:31.276Z,9.719436
2022-12-13T09:13:31.544Z,9.719436
2022-12-13T09:14:34.169Z,9.719436
2022-12-13T09:15:34.008Z,9.718471
2022-12-13T09:16:30.285Z,9.718280
2022-12-13T09:17:30.280Z,9.718324
2022-12-13T09:18:36.647Z,9.718496
2022-12-13T09:19:36.956Z,9.718496
2022-12-13T09:20:31.112Z,9.718496
2022-12-13T09:21:32.222Z,9.718496
2022-12-13T09:22:33.228Z,9.718496
2022-12-13T09:23:30.289Z,9.718496
2022-12-13T09:24:36.663Z,9.718496
2022-12-13T09:25:36.792Z,9.718496
2022-12-13T09:26:37.805Z,9.718496
2022-12-13T09:27:31.018Z,9.718496
2022-12-13T09:28:31.026Z,9.718496
2022-12-13T09:29:29.991Z,9.718496
2022-12-13T09:30:31.645Z,9.718496
2022-12-13T09:31:30.063Z,9.718496
2022-12-13T09:32:29.972Z,9.719275
2022-12-13T09:33:31.334Z,9.718854
2022-12-13T09:34:30.004Z,9.718944
2022-12-13T09:35:30.022Z,9.718829
2022-12-13T09:36:29.936Z,9.718765
2022-12-13T09:37:29.923Z,9.718866
2022-12-13T09:38:29.906Z,9.719101
2022-12-13T09:39:29.909Z,9.719122
2022-12-13T09:40:29.980Z,9.718791
2022-12-13T09:41:29.921Z,9.719029
2022-12-13T09:42:30.176Z,9.719249
2022-12-13T09:43:32.743Z,9.719337
2022-12-13T09:44:45.133Z,9.719447
2022-12-13T09:45:32.022Z,9.719377
2022-12-13T09:46:34.880Z,9.719440
2022-12-13T09:47:35.438Z,9.719148
2022-12-13T09:48:34.620Z,9.719233
2022-12-13T09:49:34.880Z,9.719306
2022-12-13T09:50:37.083Z,9.719339
2022-12-13T09:51:41.203Z,9.719559
2022-12-13T09:52:33.428Z,9.719460
2022-12-13T09:53:33.410Z,9.719132
2022-12-13T09:54:29.788Z,9.719160
2022-12-13T09:55:30.273Z,9.719156
2022-12-13T09:56:29.738Z,9.719349
2022-12-13T09:57:31.253Z,9.719477
2022-12-13T09:58:29.716Z,9.719513
2022-12-13T09:59:29.741Z,9.719612
2022-12-13T10:00:29.722Z,9.719801
2022-12-13T10:01:29.754Z,9.719651
2022-12-13T10:02:29.879Z,9.719438
2022-12-13T10:03:29.687Z,9.719260
2022-12-13T10:04:29.663Z,9.719619
2022-12-13T10:05:37.247Z,9.719550
2022-12-13T10:06:30.672Z,9.719689
2022-12-13T10:07:29.615Z,9.719507
2022-12-13T10:08:29.620Z,9.719358
2022-12-13T10:09:29.649Z,9.719285
2022-12-13T10:10:29.590Z,9.719274
2022-12-13T10:11:31.756Z,9.719290
2022-12-13T10:12:29.582Z,9.719204
2022-12-13T10:13:29.590Z,9.719289
2022-12-13T10:14:29.562Z,9.719246
2022-12-13T10:15:29.586Z,9.719251
2022-12-13T10:16:36.165Z,9.719228
2022-12-13T10:17:29.545Z,9.719213
2022-12-13T10:18:30.554Z,9.719229
2022-12-13T10:19:30.253Z,9.719174
2022-12-13T10:20:30.501Z,9.719267
2022-12-13T10:21:29.483Z,9.719336
2022-12-13T10:22:29.501Z,9.719298
2022-12-13T10:23:47.075Z,9.719210
2022-12-13T10:24:36.750Z,9.719384
2022-12-13T10:25:30.466Z,9.719343
2022-12-13T10:26:29.488Z,9.719323
2022-12-13T10:27:29.458Z,9.719270
2022-12-13T10:28:29.476Z,9.719230
2022-12-13T10:29:29.420Z,9.719225
2022-12-13T10:30:29.581Z,9.719259
2022-12-13T10:31:30.478Z,9.719166
2022-12-13T10:32:29.386Z,9.719177
2022-12-13T10:33:29.379Z,9.719096
2022-12-13T10:34:29.373Z,9.719093
2022-12-13T10:35:29.403Z,9.719120
2022-12-13T10:36:29.378Z,9.719128
2022-12-13T10:37:29.351Z,9.719272
2022-12-13T10:38:31.943Z,9.719229
2022-12-13T10:39:29.341Z,9.719229
2022-12-13T10:40:32.161Z,9.719210
2022-12-13T10:41:29.332Z,9.719202
2022-12-13T10:42:33.900Z,9.719017
2022-12-13T10:43:30.297Z,9.718990
2022-12-13T10:44:29.265Z,9.719063
2022-12-13T10:45:29.309Z,9.719131
2022-12-13T10:46:29.280Z,9.719229
2022-12-13T10:47:29.258Z,9.719119
2022-12-13T10:48:29.258Z,9.719054
2022-12-13T10:49:30.273Z,9.719151
2022-12-13T10:50:29.283Z,9.719321
2022-12-13T10:51:29.218Z,9.718984
2022-12-13T10:52:31.652Z,9.719115
2022-12-13T10:53:29.223Z,9.719208
2022-12-13T10:54:29.235Z,9.719208
2022-12-13T10:55:30.220Z,9.719208
2022-12-13T10:56:29.180Z,9.719343
2022-12-13T10:57:29.178Z,9.719439
2022-12-13T10:58:29.161Z,9.719122
2022-12-13T10:59:29.207Z,9.719101
2022-12-13T11:00:29.156Z,9.718868
2022-12-13T11:01:29.175Z,9.719172
2022-12-13T11:02:29.274Z,9.719317
2022-12-13T11:03:29.115Z,9.719290
2022-12-13T11:04:29.126Z,9.719456
2022-12-13T11:05:29.080Z,9.719346
2022-12-13T11:06:29.086Z,9.719072
2022-12-13T11:07:29.089Z,9.718994
2022-12-13T11:08:29.240Z,9.719144
2022-12-13T11:09:29.086Z,9.719119
2022-12-13T11:10:30.045Z,9.719137
2022-12-13T11:11:29.058Z,9.719132
2022-12-13T11:12:29.062Z,9.719082
2022-12-13T11:13:29.017Z,9.719116
2022-12-13T11:14:32.343Z,9.719030
2022-12-13T11:15:28.994Z,9.719121
2022-12-13T11:16:29.020Z,9.719195
2022-12-13T11:17:28.989Z,9.719129
2022-12-13T11:18:28.954Z,9.719110
2022-12-13T11:19:28.994Z,9.719151
2022-12-13T11:20:28.998Z,9.719131
2022-12-13T11:21:28.963Z,9.719149
2022-12-13T11:22:28.908Z,9.719091
2022-12-13T11:23:28.918Z,9.719120
2022-12-13T11:24:28.887Z,9.719131
2022-12-13T11:25:28.901Z,9.719217
2022-12-13T11:26:28.914Z,9.719140
2022-12-13T11:27:28.904Z,9.719064
2022-12-13T11:28:28.886Z,9.719005
2022-12-13T11:29:28.881Z,9.719150
2022-12-13T11:30:28.875Z,9.719164
2022-12-13T11:31:28.900Z,9.719213
2022-12-13T11:32:28.816Z,9.719229
2022-12-13T11:33:28.830Z,9.719213
2022-12-13T11:34:28.853Z,9.719302
2022-12-13T11:35:28.803Z,9.719326
2022-12-13T11:36:28.788Z,9.719338
2022-12-13T11:37:28.769Z,9.719304
2022-12-13T11:38:28.797Z,9.719266
2022-12-13T11:39:28.769Z,9.719242
2022-12-13T11:40:28.764Z,9.719341
2022-12-13T11:41:31.663Z,9.719376
2022-12-13T11:42:28.736Z,9.719596
2022-12-13T11:43:28.730Z,9.719518
2022-12-13T11:44:28.695Z,9.719352
2022-12-13T11:45:28.736Z,9.719218